Time;durP1;ratioP1;P1;durP2;ratioP2;P2;SDS_P1;SDS_P2;PMS_P1;PMS_P2;Temp;Humidity;BMP_temperature;BMP_pressure;BME280_temperature;BME280_humidity;BME280_pressure;Samples;Min_cycle;Max_cycle;Signal;HPM_P1;HPM_P2
2022/10/28 00:00:50;;;;;;;1.83;1.63;;;17.80;65.20;;;;;;5106613;28;20254;-66
2022/10/28 00:03:17;;;;;;;2.20;1.58;;;17.80;65.20;;;;;;5108587;28;20016;-66
2022/10/28 00:05:43;;;;;;;1.40;1.15;;;17.80;65.20;;;;;;5108108;28;20084;-66
2022/10/28 00:08:09;;;;;;;1.75;1.02;;;17.80;65.20;;;;;;5107675;28;20085;-65
2022/10/28 00:10:35;;;;;;;1.67;1.20;;;17.80;65.30;;;;;;5108589;28;20024;-66
2022/10/28 00:13:01;;;;;;;1.83;1.35;;;17.80;65.40;;;;;;5107681;28;20020;-67
2022/10/28 00:15:26;;;;;;;2.08;1.52;;;17.80;65.30;;;;;;5107589;28;20020;-66
2022/10/28 00:17:52;;;;;;;3.05;1.60;;;17.80;65.30;;;;;;5107972;28;20239;-66
2022/10/28 00:20:18;;;;;;;1.45;1.17;;;17.80;65.30;;;;;;5140718;27;20238;-66
2022/10/28 00:22:44;;;;;;;1.80;1.10;;;17.80;65.20;;;;;;5107380;28;20099;-67
2022/10/28 00:25:10;;;;;;;2.05;1.30;;;17.80;65.30;;;;;;5107784;28;20027;-66
2022/10/28 00:27:36;;;;;;;1.33;1.10;;;17.80;65.30;;;;;;5107472;28;20058;-66
2022/10/28 00:30:03;;;;;;;3.63;1.25;;;17.80;65.30;;;;;;5107534;28;20024;-66
2022/10/28 00:32:29;;;;;;;1.25;1.05;;;17.80;65.30;;;;;;5108105;28;20054;-66
2022/10/28 00:34:55;;;;;;;1.65;1.00;;;17.80;65.30;;;;;;5107121;28;20016;-67
2022/10/28 00:37:21;;;;;;;1.67;1.20;;;17.80;65.30;;;;;;5107332;28;20060;-67
2022/10/28 00:39:46;;;;;;;1.58;1.30;;;17.80;65.30;;;;;;5107276;28;20023;-66
2022/10/28 00:42:17;;;;;;;1.75;1.00;;;17.80;65.30;;;;;;5106780;28;20016;-66
2022/10/28 00:44:50;;;;;;;2.35;1.20;;;17.80;65.30;;;;;;5106781;28;20109;-67
2022/10/28 00:47:27;;;;;;;2.30;1.38;;;17.80;65.30;;;;;;5106615;28;20020;-67
2022/10/28 00:50:04;;;;;;;1.63;1.27;;;17.80;65.30;;;;;;5106729;28;20016;-66
2022/10/28 00:52:31;;;;;;;2.08;1.40;;;17.80;65.30;;;;;;5106702;28;20029;-65
2022/10/28 00:54:59;;;;;;;1.20;1.10;;;17.80;65.20;;;;;;5106706;28;20211;-66
2022/10/28 00:57:30;;;;;;;1.60;1.23;;;17.80;65.30;;;;;;5106727;28;20073;-67
2022/10/28 00:59:59;;;;;;;1.73;1.63;;;17.80;65.30;;;;;;5106892;28;20073;-66
2022/10/28 01:02:24;;;;;;;2.03;1.40;;;17.80;65.20;;;;;;5105687;28;20027;-65
2022/10/28 01:04:51;;;;;;;1.73;1.15;;;17.80;65.30;;;;;;5107351;28;20024;-67
2022/10/28 01:07:17;;;;;;;2.00;1.55;;;17.80;65.20;;;;;;5107196;28;20316;-66
2022/10/28 01:09:43;;;;;;;1.35;1.10;;;17.80;65.20;;;;;;5107286;28;20035;-66
2022/10/28 01:12:28;;;;;;;1.40;1.30;;;17.80;65.30;;;;;;5106455;28;20267;-67
2022/10/28 01:15:05;;;;;;;1.65;1.52;;;17.80;65.30;;;;;;5106701;28;20087;-65
2022/10/28 01:17:58;;;;;;;1.85;1.40;;;17.80;65.30;;;;;;5107160;28;20024;-66
2022/10/28 01:20:32;;;;;;;1.70;1.45;;;17.80;65.30;;;;;;5107686;28;20026;-66
2022/10/28 01:23:23;;;;;;;1.95;1.48;;;17.80;65.30;;;;;;5106705;28;20112;-66
2022/10/28 01:26:03;;;;;;;1.52;1.30;;;17.80;65.30;;;;;;5107133;28;20353;-65
2022/10/28 01:28:34;;;;;;;1.90;1.30;;;17.70;65.30;;;;;;5105760;28;20020;-66
2022/10/28 01:31:22;;;;;;;2.75;1.70;;;17.70;65.30;;;;;;5106312;28;20038;-66
2022/10/28 01:33:51;;;;;;;1.25;1.08;;;17.70;65.30;;;;;;5106596;28;20039;-67
2022/10/28 01:36:51;;;;;;;1.83;1.55;;;17.70;65.30;;;;;;5105822;28;20054;-67
2022/10/28 01:39:23;;;;;;;1.95;1.20;;;17.80;65.30;;;;;;5073080;28;20109;-65
2022/10/28 01:41:57;;;;;;;2.50;1.27;;;17.70;65.30;;;;;;5105711;28;20020;-65
2022/10/28 01:44:46;;;;;;;1.77;1.10;;;17.80;65.30;;;;;;5105926;28;20016;-66
2022/10/28 01:47:26;;;;;;;1.98;1.23;;;17.70;65.80;;;;;;5105357;28;20022;-66
2022/10/28 01:50:04;;;;;;;1.77;1.20;;;17.70;65.30;;;;;;5105957;28;20127;-66
2022/10/28 01:52:31;;;;;;;1.88;1.50;;;17.70;65.30;;;;;;5106347;28;20016;-67
2022/10/28 01:55:10;;;;;;;1.95;1.30;;;17.70;65.30;;;;;;5105841;28;20020;-66
2022/10/28 01:57:39;;;;;;;2.03;1.23;;;17.70;65.30;;;;;;5105438;28;20320;-66
2022/10/28 02:00:06;;;;;;;1.27;1.02;;;17.70;65.30;;;;;;5105404;28;20030;-67
2022/10/28 02:02:35;;;;;;;1.63;1.40;;;17.70;65.20;;;;;;5105606;28;20069;-66
2022/10/28 02:05:23;;;;;;;1.55;1.02;;;17.70;65.30;;;;;;5105803;28;20076;-66
2022/10/28 02:07:51;;;;;;;1.20;0.95;;;17.70;65.20;;;;;;5106103;28;20027;-66
2022/10/28 02:10:23;;;;;;;1.60;1.10;;;17.70;65.30;;;;;;5105696;28;20043;-66
2022/10/28 02:12:55;;;;;;;1.23;1.10;;;17.70;65.20;;;;;;5106066;28;20039;-66
2022/10/28 02:15:45;;;;;;;1.77;1.40;;;17.80;65.40;;;;;;5105540;28;20039;-66
2022/10/28 02:18:22;;;;;;;1.60;1.38;;;17.70;65.30;;;;;;5105701;28;20020;-66
2022/10/28 02:20:51;;;;;;;1.45;1.10;;;17.70;65.20;;;;;;5104829;28;20099;-65
2022/10/28 02:23:21;;;;;;;2.47;1.15;;;17.70;65.30;;;;;;5104900;28;20035;-67
2022/10/28 02:26:18;;;;;;;1.25;1.15;;;17.70;65.30;;;;;;5105465;28;20026;-66
2022/10/28 02:28:50;;;;;;;2.10;1.35;;;17.70;65.30;;;;;;5105114;28;20079;-66
2022/10/28 02:31:50;;;;;;;1.80;1.25;;;17.70;65.30;;;;;;5104741;28;20019;-65
2022/10/28 02:34:29;;;;;;;1.40;1.30;;;17.70;65.30;;;;;;5072308;28;20239;-66
2022/10/28 02:36:58;;;;;;;1.75;1.30;;;17.70;65.30;;;;;;5104777;28;20203;-66
2022/10/28 02:39:38;;;;;;;1.75;1.10;;;17.70;65.20;;;;;;5104667;28;20051;-66
2022/10/28 02:42:18;;;;;;;1.35;1.10;;;17.70;65.20;;;;;;5104763;28;20020;-67
2022/10/28 02:44:49;;;;;;;1.33;1.00;;;17.70;65.30;;;;;;5104552;28;20223;-66
2022/10/28 02:47:23;;;;;;;1.58;1.20;;;17.70;65.30;;;;;;5104306;28;20042;-66
2022/10/28 02:49:55;;;;;;;1.95;1.15;;;17.70;65.30;;;;;;5104134;28;20027;-66
2022/10/28 02:52:23;;;;;;;1.10;0.90;;;17.70;65.30;;;;;;5104203;28;20016;-67
2022/10/28 02:54:58;;;;;;;1.42;1.13;;;17.70;65.30;;;;;;5104144;28;20012;-66
2022/10/28 02:57:37;;;;;;;1.77;1.40;;;17.70;65.30;;;;;;5104081;28;20085;-67
2022/10/28 03:00:10;;;;;;;1.50;1.10;;;17.70;65.20;;;;;;5104087;28;20020;-65
2022/10/28 03:02:36;;;;;;;1.80;1.38;;;17.70;65.20;;;;;;5103966;28;20016;-66
2022/10/28 03:05:04;;;;;;;2.25;1.52;;;17.70;65.30;;;;;;5103962;28;20028;-66
2022/10/28 03:07:30;;;;;;;1.30;1.20;;;17.70;65.30;;;;;;5103957;28;20245;-66
2022/10/28 03:09:56;;;;;;;1.48;1.35;;;17.70;65.30;;;;;;5103838;28;20065;-65
2022/10/28 03:12:22;;;;;;;1.40;1.20;;;17.70;65.30;;;;;;5103876;28;20065;-66
2022/10/28 03:14:47;;;;;;;2.00;1.58;;;17.70;65.30;;;;;;5103828;28;20342;-66
2022/10/28 03:17:13;;;;;;;1.17;1.08;;;17.70;65.30;;;;;;5103429;28;20016;-65
2022/10/28 03:19:39;;;;;;;1.48;1.38;;;17.70;65.30;;;;;;5103829;28;20024;-65
2022/10/28 03:22:05;;;;;;;2.20;1.40;;;17.70;65.30;;;;;;5103578;28;20044;-65
2022/10/28 03:24:31;;;;;;;1.73;1.52;;;17.70;65.30;;;;;;5103756;28;20040;-66
2022/10/28 03:26:56;;;;;;;1.77;1.40;;;17.70;65.20;;;;;;5103656;28;20069;-65
2022/10/28 03:29:22;;;;;;;1.33;1.20;;;17.70;65.30;;;;;;5102444;28;20312;-66
2022/10/28 03:31:48;;;;;;;1.45;1.35;;;17.70;65.30;;;;;;5136712;28;20016;-67
2022/10/28 03:34:14;;;;;;;1.42;1.30;;;17.70;65.30;;;;;;5103595;28;20016;-66
2022/10/28 03:36:40;;;;;;;1.27;1.10;;;17.70;65.30;;;;;;5103564;28;20016;-66
2022/10/28 03:39:05;;;;;;;1.67;1.08;;;17.70;65.30;;;;;;5103596;28;20071;-65
2022/10/28 03:41:31;;;;;;;1.48;1.00;;;17.70;65.30;;;;;;5102394;28;20020;-67
2022/10/28 03:43:57;;;;;;;3.08;1.33;;;17.70;65.30;;;;;;5103519;28;20020;-66
2022/10/28 03:46:23;;;;;;;1.33;1.15;;;17.70;65.30;;;;;;5103494;28;20176;-66
2022/10/28 03:48:48;;;;;;;1.77;1.13;;;17.70;65.30;;;;;;5103465;28;20020;-67
2022/10/28 03:51:14;;;;;;;1.30;1.17;;;17.70;65.30;;;;;;5103441;28;20042;-66
2022/10/28 03:53:40;;;;;;;1.52;1.17;;;17.70;65.30;;;;;;5103513;28;20016;-66
2022/10/28 03:56:06;;;;;;;1.88;1.17;;;17.70;65.50;;;;;;5103423;28;20020;-66
2022/10/28 03:58:31;;;;;;;1.35;1.25;;;17.70;65.30;;;;;;5103407;28;20020;-66
2022/10/28 04:00:57;;;;;;;1.88;1.23;;;17.70;65.30;;;;;;5103325;28;20090;-66
2022/10/28 04:03:24;;;;;;;1.30;1.20;;;17.70;65.30;;;;;;5103374;28;20023;-66
2022/10/28 04:05:50;;;;;;;1.75;1.13;;;17.70;65.30;;;;;;5103383;28;20035;-66
2022/10/28 04:08:17;;;;;;;2.58;1.30;;;17.70;65.30;;;;;;5103325;28;20024;-66
2022/10/28 04:10:44;;;;;;;1.85;1.13;;;17.70;65.30;;;;;;5103261;28;20015;-66
2022/10/28 04:13:10;;;;;;;1.88;1.13;;;17.70;65.30;;;;;;5102115;28;20020;-67
2022/10/28 04:15:36;;;;;;;1.77;1.10;;;17.70;65.20;;;;;;5103239;28;20012;-66
2022/10/28 04:18:03;;;;;;;2.10;1.25;;;17.70;65.30;;;;;;5103221;28;20012;-66
2022/10/28 04:20:29;;;;;;;1.00;0.90;;;17.70;65.30;;;;;;5103226;28;20039;-66
2022/10/28 04:22:55;;;;;;;1.50;1.30;;;17.70;65.30;;;;;;5103068;28;20083;-65
2022/10/28 04:25:22;;;;;;;1.10;1.05;;;17.70;65.30;;;;;;5103152;28;20211;-65
2022/10/28 04:27:48;;;;;;;1.90;1.10;;;17.70;65.30;;;;;;5103132;28;20046;-65
2022/10/28 04:30:13;;;;;;;2.00;1.15;;;17.70;65.30;;;;;;5105016;28;20020;-66
2022/10/28 04:32:41;;;;;;;1.58;1.30;;;17.70;65.30;;;;;;5106813;28;20059;-66
2022/10/28 04:35:07;;;;;;;1.30;1.20;;;17.70;65.30;;;;;;5106767;28;20327;-67
2022/10/28 04:37:33;;;;;;;0.85;0.80;;;17.60;65.20;;;;;;5106724;28;20047;-67
2022/10/28 04:39:59;;;;;;;1.73;1.00;;;17.70;65.30;;;;;;5106656;28;20016;-66
2022/10/28 04:42:25;;;;;;;1.17;1.00;;;17.60;65.30;;;;;;5106626;28;20350;-67
2022/10/28 04:44:50;;;;;;;1.25;1.15;;;17.70;65.40;;;;;;5106529;28;20020;-66
2022/10/28 04:47:17;;;;;;;1.55;1.17;;;17.70;65.30;;;;;;5106521;28;20031;-66
2022/10/28 04:49:43;;;;;;;1.10;1.00;;;17.60;65.30;;;;;;5106390;28;20245;-66
2022/10/28 04:52:09;;;;;;;1.58;1.40;;;17.70;65.30;;;;;;5106413;28;20039;-66
2022/10/28 04:54:35;;;;;;;1.83;1.15;;;17.70;65.30;;;;;;5106409;28;20023;-67
2022/10/28 04:57:01;;;;;;;2.03;1.20;;;17.60;65.30;;;;;;5106281;28;20023;-66
2022/10/28 04:59:27;;;;;;;1.05;1.00;;;17.60;65.30;;;;;;5106294;28;20020;-66
2022/10/28 05:01:52;;;;;;;2.58;1.55;;;17.60;65.90;;;;;;5106267;28;20242;-66
2022/10/28 05:04:18;;;;;;;1.45;1.30;;;17.60;65.30;;;;;;5106184;28;20042;-66
2022/10/28 05:06:44;;;;;;;1.55;1.23;;;17.60;65.30;;;;;;5106123;28;20022;-66
2022/10/28 05:09:10;;;;;;;1.48;1.38;;;17.60;65.30;;;;;;5106076;28;20016;-66
2022/10/28 05:11:36;;;;;;;1.35;0.90;;;17.60;65.20;;;;;;5105935;28;20216;-66
2022/10/28 05:14:01;;;;;;;1.63;1.20;;;17.70;65.30;;;;;;5105983;28;20016;-66
2022/10/28 05:16:27;;;;;;;3.25;1.42;;;17.60;65.30;;;;;;5105934;28;20071;-65
2022/10/28 05:18:53;;;;;;;1.42;1.13;;;17.60;65.30;;;;;;5105873;28;20016;-66
2022/10/28 05:21:19;;;;;;;1.35;1.00;;;17.60;65.30;;;;;;5105674;28;20051;-66
2022/10/28 05:23:46;;;;;;;2.13;1.30;;;17.60;65.30;;;;;;5105834;28;20020;-67
2022/10/28 05:26:12;;;;;;;1.17;1.00;;;17.60;65.30;;;;;;5105938;28;20024;-65
2022/10/28 05:28:38;;;;;;;1.42;1.33;;;17.60;65.30;;;;;;5105746;28;20020;-66
2022/10/28 05:31:04;;;;;;;1.67;1.42;;;17.60;65.30;;;;;;5105591;28;20026;-66
2022/10/28 05:33:29;;;;;;;1.13;1.02;;;17.60;65.30;;;;;;5105664;28;20040;-65
2022/10/28 05:35:58;;;;;;;1.17;1.08;;;17.60;65.30;;;;;;5105599;28;20020;-66
2022/10/28 05:38:23;;;;;;;1.23;1.13;;;17.60;65.20;;;;;;5105563;28;20053;-66
2022/10/28 05:40:49;;;;;;;1.30;1.20;;;17.60;65.30;;;;;;5105153;28;20028;-65
2022/10/28 05:43:15;;;;;;;1.88;1.25;;;17.60;65.20;;;;;;5105420;28;20327;-65
2022/10/28 05:45:41;;;;;;;1.33;1.00;;;17.70;65.30;;;;;;5105325;28;20030;-66
2022/10/28 05:48:07;;;;;;;1.55;1.25;;;17.60;65.20;;;;;;5105338;28;20020;-66
2022/10/28 05:50:33;;;;;;;2.33;1.40;;;17.60;65.30;;;;;;5105245;28;20019;-66
2022/10/28 05:52:59;;;;;;;1.20;1.08;;;17.60;65.30;;;;;;5105252;28;20276;-66
2022/10/28 05:55:27;;;;;;;4.22;1.35;;;17.60;65.30;;;;;;5105211;28;20024;-66
2022/10/28 05:57:54;;;;;;;1.53;1.43;;;17.60;65.30;;;;;;5105151;28;20087;-66
2022/10/28 06:00:22;;;;;;;1.55;1.20;;;17.60;65.30;;;;;;5105362;28;20271;-67
2022/10/28 06:02:48;;;;;;;3.33;1.35;;;17.60;65.90;;;;;;5105043;28;20163;-65
2022/10/28 06:05:14;;;;;;;2.05;1.17;;;17.60;65.20;;;;;;5104981;28;20028;-66
2022/10/28 06:07:40;;;;;;;1.08;1.00;;;17.60;65.20;;;;;;5104983;28;20342;-66
2022/10/28 06:10:08;;;;;;;1.40;1.30;;;17.60;65.20;;;;;;5104855;28;20023;-66
2022/10/28 06:12:34;;;;;;;1.00;0.90;;;17.60;65.20;;;;;;5104838;28;20036;-65
2022/10/28 06:15:00;;;;;;;1.58;1.27;;;17.60;65.20;;;;;;5104846;28;20016;-66
2022/10/28 06:17:26;;;;;;;1.50;1.27;;;17.60;65.30;;;;;;5104789;28;20215;-65
2022/10/28 06:19:52;;;;;;;1.88;1.45;;;17.60;65.30;;;;;;5104715;28;20049;-66
2022/10/28 06:22:18;;;;;;;1.88;1.30;;;17.60;65.20;;;;;;5104536;28;20056;-66
2022/10/28 06:24:44;;;;;;;1.75;1.00;;;17.60;65.20;;;;;;5104635;28;20020;-67
2022/10/28 06:27:10;;;;;;;1.25;1.15;;;17.60;65.20;;;;;;5104570;28;20051;-65
2022/10/28 06:29:35;;;;;;;1.65;1.50;;;17.60;65.20;;;;;;5104471;28;20339;-65
2022/10/28 06:32:01;;;;;;;1.20;1.02;;;17.60;65.20;;;;;;5104519;28;20023;-66
2022/10/28 06:34:27;;;;;;;1.20;1.02;;;17.60;65.20;;;;;;5104471;28;20016;-66
2022/10/28 06:36:53;;;;;;;1.77;1.40;;;17.60;65.20;;;;;;5104378;28;20020;-66
2022/10/28 06:39:19;;;;;;;1.10;1.00;;;17.60;65.20;;;;;;5104431;28;20016;-66
2022/10/28 06:41:44;;;;;;;1.08;0.98;;;17.60;65.20;;;;;;5104403;28;20027;-66
2022/10/28 06:44:11;;;;;;;1.40;1.27;;;17.60;65.10;;;;;;5104290;28;20039;-66
2022/10/28 06:46:36;;;;;;;1.35;1.20;;;17.60;65.10;;;;;;5104241;28;20083;-66
2022/10/28 06:49:03;;;;;;;1.10;0.90;;;17.60;65.10;;;;;;5104206;28;20058;-67
2022/10/28 06:51:31;;;;;;;2.08;1.08;;;17.60;65.10;;;;;;5103908;28;20024;-67
2022/10/28 06:53:57;;;;;;;1.52;1.40;;;17.60;65.10;;;;;;5103713;28;20038;-66
2022/10/28 06:56:23;;;;;;;1.70;1.30;;;17.60;65.10;;;;;;5104105;28;20020;-66
2022/10/28 06:58:50;;;;;;;1.63;1.38;;;17.60;65.10;;;;;;5104061;28;20039;-68
2022/10/28 07:01:16;;;;;;;2.10;0.80;;;17.70;65.20;;;;;;5104043;28;20226;-66
2022/10/28 07:03:42;;;;;;;1.23;1.10;;;17.60;65.10;;;;;;5103937;28;20327;-68
2022/10/28 07:06:09;;;;;;;1.20;1.10;;;17.60;65.10;;;;;;5103965;28;20023;-67
2022/10/28 07:08:34;;;;;;;1.23;1.13;;;17.60;65.00;;;;;;5103924;28;20083;-68
2022/10/28 07:11:01;;;;;;;1.10;0.95;;;17.70;65.10;;;;;;5103824;28;20225;-66
2022/10/28 07:13:28;;;;;;;1.60;1.30;;;17.60;65.10;;;;;;5103513;28;20016;-66
2022/10/28 07:15:57;;;;;;;1.67;1.30;;;17.70;65.10;;;;;;5103825;28;20016;-66
2022/10/28 07:18:25;;;;;;;1.20;1.10;;;17.60;65.10;;;;;;5103849;28;20027;-65
2022/10/28 07:20:50;;;;;;;1.10;1.00;;;17.70;65.10;;;;;;5103623;28;20024;-65
2022/10/28 07:23:18;;;;;;;1.63;1.10;;;17.70;65.10;;;;;;5103658;28;20048;-66
2022/10/28 07:25:52;;;;;;;1.48;1.30;;;17.70;65.10;;;;;;5103690;28;20032;-66
2022/10/28 07:28:18;;;;;;;3.72;1.30;;;17.70;65.10;;;;;;5103677;28;20016;-65
2022/10/28 07:30:43;;;;;;;1.10;1.00;;;17.70;65.20;;;;;;5103552;28;20047;-66
2022/10/28 07:33:09;;;;;;;2.05;1.30;;;17.70;65.20;;;;;;5103646;28;20084;-65
2022/10/28 07:35:35;;;;;;;2.03;1.08;;;17.70;65.10;;;;;;5103607;28;20016;-66
2022/10/28 07:38:00;;;;;;;1.40;1.00;;;17.70;65.10;;;;;;5103605;28;20497;-67
2022/10/28 07:40:26;;;;;;;1.10;1.00;;;17.70;65.10;;;;;;5103628;28;20045;-66
2022/10/28 07:42:52;;;;;;;1.23;1.00;;;17.70;65.10;;;;;;5103607;28;20380;-66
2022/10/28 07:45:19;;;;;;;1.42;1.17;;;17.70;65.00;;;;;;5103531;28;20337;-67
2022/10/28 07:47:44;;;;;;;1.73;1.08;;;17.70;65.00;;;;;;5103570;28;20067;-66
2022/10/28 07:50:11;;;;;;;1.42;1.30;;;17.70;65.00;;;;;;5103478;28;20315;-67
2022/10/28 07:52:37;;;;;;;1.77;1.42;;;17.70;65.10;;;;;;5103482;28;20338;-67
2022/10/28 07:55:04;;;;;;;1.25;1.15;;;17.70;65.10;;;;;;5103454;28;20204;-66
2022/10/28 07:57:30;;;;;;;1.08;0.98;;;17.70;65.10;;;;;;5103459;28;20023;-66
2022/10/28 07:59:56;;;;;;;1.27;1.17;;;17.70;65.10;;;;;;5103435;28;20061;-66
2022/10/28 08:02:23;;;;;;;1.20;1.10;;;17.70;65.10;;;;;;5103357;28;20020;-66
2022/10/28 08:04:50;;;;;;;1.25;1.15;;;17.70;65.00;;;;;;5106463;28;20077;-65
2022/10/28 08:07:16;;;;;;;1.38;1.20;;;17.60;65.00;;;;;;5107293;28;20025;-66
2022/10/28 08:09:42;;;;;;;1.15;1.05;;;17.70;65.10;;;;;;5107233;28;20230;-67
2022/10/28 08:12:11;;;;;;;1.23;1.00;;;17.70;65.00;;;;;;5107235;28;20016;-66
2022/10/28 08:14:37;;;;;;;2.05;1.25;;;17.70;65.00;;;;;;5107156;28;20113;-66
2022/10/28 08:17:03;;;;;;;1.10;1.00;;;17.70;65.10;;;;;;5107083;28;20016;-66
2022/10/28 08:19:29;;;;;;;1.35;1.23;;;17.70;65.10;;;;;;5107088;28;20080;-65
2022/10/28 08:21:55;;;;;;;2.72;1.30;;;17.70;65.10;;;;;;5106899;28;20067;-66
2022/10/28 08:24:20;;;;;;;2.60;1.27;;;17.70;65.10;;;;;;5106947;28;20074;-66
2022/10/28 08:26:46;;;;;;;1.13;1.00;;;17.70;65.10;;;;;;5106898;28;20016;-67
2022/10/28 08:29:12;;;;;;;2.53;1.30;;;17.60;65.10;;;;;;5106873;28;20024;-66
2022/10/28 08:31:38;;;;;;;1.90;1.50;;;17.60;65.10;;;;;;5106764;28;20016;-65
2022/10/28 08:34:05;;;;;;;1.00;0.90;;;17.70;65.20;;;;;;5106818;28;20042;-66
2022/10/28 08:36:32;;;;;;;1.35;1.10;;;17.70;65.10;;;;;;5106766;28;20012;-67
2022/10/28 08:38:59;;;;;;;1.70;1.27;;;17.70;65.10;;;;;;5106678;28;20016;-66
2022/10/28 08:41:50;;;;;;;1.35;1.02;;;17.70;65.10;;;;;;5106669;28;20011;-66
2022/10/28 08:45:05;;;;;;;1.48;1.15;;;17.70;65.10;;;;;;5106678;28;20290;-67
2022/10/28 08:48:03;;;;;;;2.20;1.17;;;17.70;65.10;;;;;;5044302;28;20025;-65
2022/10/28 08:50:32;;;;;;;1.35;1.20;;;17.70;65.10;;;;;;5027339;28;20033;-67
2022/10/28 08:53:24;;;;;;;1.70;1.52;;;17.70;65.00;;;;;;5088188;28;20032;-66
2022/10/28 08:55:52;;;;;;;2.08;1.20;;;17.70;65.00;;;;;;5103239;28;20028;-66
2022/10/28 08:58:32;;;;;;;1.55;0.95;;;17.70;65.00;;;;;;5106328;28;20323;-66
2022/10/28 09:00:58;;;;;;;1.70;1.23;;;17.70;65.00;;;;;;5106274;28;20024;-66
2022/10/28 09:03:39;;;;;;;2.72;1.52;;;17.70;65.00;;;;;;5105107;28;20052;-66
2022/10/28 09:06:07;;;;;;;1.13;0.95;;;17.70;65.00;;;;;;5106187;28;20020;-66
2022/10/28 09:08:44;;;;;;;1.30;1.20;;;17.70;65.00;;;;;;5106167;28;20065;-66
2022/10/28 09:11:16;;;;;;;1.15;1.05;;;17.70;65.00;;;;;;5106008;28;20070;-67
2022/10/28 09:14:06;;;;;;;1.35;1.00;;;17.70;65.00;;;;;;5106104;28;20019;-66
2022/10/28 09:16:47;;;;;;;1.27;1.17;;;17.70;65.00;;;;;;5105290;28;20011;-66
2022/10/28 09:19:35;;;;;;;2.15;1.38;;;17.70;65.00;;;;;;5105949;28;20057;-66
2022/10/28 09:22:04;;;;;;;;;;;17.70;64.90;;;;;;5106200;28;20035;-65
2022/10/28 09:25:01;;;;;;;2.00;1.38;;;17.70;65.00;;;;;;5105830;28;20188;-66
2022/10/28 09:27:49;;;;;;;1.00;0.90;;;17.70;65.00;;;;;;5104675;28;20027;-65
2022/10/28 09:30:30;;;;;;;1.10;1.00;;;17.70;65.00;;;;;;5105670;28;20300;-67
2022/10/28 09:33:14;;;;;;;2.22;1.40;;;17.70;65.00;;;;;;5105759;28;20315;-66
2022/10/28 09:35:43;;;;;;;1.60;1.23;;;17.70;64.90;;;;;;5105639;28;20207;-66
2022/10/28 09:38:12;;;;;;;;;;;17.70;64.90;;;;;;5106066;28;20023;-66
2022/10/28 09:40:42;;;;;;;2.20;1.58;;;17.70;64.90;;;;;;5104367;28;19967;-66
2022/10/28 09:43:33;;;;;;;1.33;1.17;;;17.70;64.80;;;;;;5105513;28;20016;-66
2022/10/28 09:46:05;;;;;;;1.27;1.17;;;17.70;64.80;;;;;;5105430;28;20012;-66
2022/10/28 09:48:35;;;;;;;1.17;1.08;;;17.70;64.90;;;;;;5105416;28;20307;-67
2022/10/28 09:51:01;;;;;;;1.10;0.95;;;17.70;64.90;;;;;;5105249;28;20083;-66
2022/10/28 09:53:49;;;;;;;1.17;0.95;;;17.70;64.80;;;;;;5105290;28;20011;-66
2022/10/28 09:56:15;;;;;;;1.35;1.25;;;17.70;64.90;;;;;;5105296;28;20079;-66
2022/10/28 09:58:46;;;;;;;1.33;1.00;;;17.70;64.80;;;;;;5105202;28;20054;-65
2022/10/28 10:01:12;;;;;;;1.20;1.00;;;17.70;64.90;;;;;;5105144;28;20020;-65
2022/10/28 10:03:40;;;;;;;1.13;1.00;;;17.70;64.90;;;;;;5105082;28;20207;-66
2022/10/28 10:06:18;;;;;;;1.50;1.40;;;17.70;65.00;;;;;;5103873;28;20024;-66
2022/10/28 10:08:47;;;;;;;1.33;1.23;;;17.70;65.00;;;;;;5104983;28;20083;-66
2022/10/28 10:11:31;;;;;;;1.42;1.15;;;17.70;65.00;;;;;;5104862;28;20020;-66
2022/10/28 10:14:02;;;;;;;1.20;1.10;;;17.70;65.00;;;;;;5104865;28;20294;-65
2022/10/28 10:16:59;;;;;;;1.83;1.35;;;17.70;65.10;;;;;;5104862;28;20020;-67
2022/10/28 10:19:25;;;;;;;1.92;1.25;;;17.70;65.00;;;;;;5104805;28;20033;-66
2022/10/28 10:21:53;;;;;;;1.48;0.90;;;17.70;65.00;;;;;;5104572;28;20048;-67
2022/10/28 10:24:23;;;;;;;1.38;1.17;;;17.70;64.90;;;;;;5104682;28;20089;-67
2022/10/28 10:26:50;;;;;;;1.45;1.20;;;17.70;64.90;;;;;;5103845;28;20027;-66
2022/10/28 10:29:16;;;;;;;1.38;1.08;;;17.70;65.00;;;;;;5103292;28;20227;-66
2022/10/28 10:31:43;;;;;;;1.48;1.10;;;17.70;64.90;;;;;;5104519;28;20245;-66
2022/10/28 10:34:36;;;;;;;1.60;1.30;;;17.70;64.80;;;;;;5104507;28;20295;-65
2022/10/28 10:37:02;;;;;;;2.78;1.13;;;17.70;64.80;;;;;;5101612;28;20381;-66
2022/10/28 10:39:37;;;;;;;1.27;1.02;;;17.70;64.90;;;;;;5104452;28;20307;-67
2022/10/28 10:42:16;;;;;;;2.15;1.67;;;17.70;64.90;;;;;;5104416;28;20027;-67
2022/10/28 10:44:42;;;;;;;;;;;17.70;64.90;;;;;;5104753;28;20231;-66
2022/10/28 10:47:12;;;;;;;1.83;1.60;;;17.70;64.90;;;;;;5104271;28;19907;-66
2022/10/28 10:49:38;;;;;;;1.50;1.20;;;17.70;65.00;;;;;;5104480;28;20020;-67
2022/10/28 10:52:16;;;;;;;1.23;1.13;;;17.70;64.90;;;;;;5104137;28;20212;-66
2022/10/28 10:54:57;;;;;;;1.52;1.42;;;17.70;64.90;;;;;;5104225;28;20196;-66
2022/10/28 10:57:24;;;;;;;1.30;1.10;;;17.70;64.90;;;;;;5104170;28;20012;-66
2022/10/28 10:59:52;;;;;;;1.42;1.27;;;17.70;65.00;;;;;;5104076;28;20018;-66
2022/10/28 11:02:29;;;;;;;1.90;1.25;;;17.70;64.90;;;;;;5104038;28;20016;-66
2022/10/28 11:04:59;;;;;;;1.30;1.08;;;17.70;64.90;;;;;;5104020;28;20019;-67
2022/10/28 11:07:27;;;;;;;1.33;1.23;;;17.70;64.80;;;;;;5103983;28;20043;-66
2022/10/28 11:09:53;;;;;;;1.30;1.20;;;17.70;65.00;;;;;;5103892;28;20020;-66
2022/10/28 11:12:34;;;;;;;1.50;1.30;;;17.70;64.90;;;;;;5103877;28;20020;-66
2022/10/28 11:15:21;;;;;;;1.27;1.17;;;17.70;64.90;;;;;;5102694;28;20058;-66
2022/10/28 11:18:10;;;;;;;1.67;1.58;;;17.70;64.90;;;;;;5103862;28;20015;-67
2022/10/28 11:21:01;;;;;;;1.25;1.00;;;17.70;64.90;;;;;;5103642;28;20030;-66
2022/10/28 11:23:38;;;;;;;1.67;1.48;;;17.70;65.00;;;;;;5103849;28;20227;-66
2022/10/28 11:26:12;;;;;;;4.40;1.63;;;17.70;64.90;;;;;;5103781;28;20069;-66
2022/10/28 11:28:54;;;;;;;1.80;1.42;;;17.70;64.90;;;;;;5102622;28;20020;-66
2022/10/28 11:31:22;;;;;;;1.50;1.10;;;17.70;64.90;;;;;;5103654;28;20087;-66
2022/10/28 11:34:03;;;;;;;1.90;1.42;;;17.70;64.80;;;;;;5103681;28;20020;-66
2022/10/28 11:36:42;;;;;;;1.75;1.52;;;17.70;64.90;;;;;;5103635;28;20419;-66
2022/10/28 11:39:36;;;;;;;1.98;1.60;;;17.70;64.80;;;;;;5105720;28;20020;-67
2022/10/28 11:42:10;;;;;;;1.20;1.10;;;17.70;64.80;;;;;;5107852;28;20027;-66
2022/10/28 11:45:16;;;;;;;5.68;1.38;;;17.70;64.80;;;;;;5101517;28;20024;-66
2022/10/28 11:48:09;;;;;;;10.80;1.98;;;17.70;64.80;;;;;;5098237;28;20032;-68
2022/10/28 11:50:55;;;;;;;4.40;1.77;;;17.70;65.00;;;;;;5107626;28;20031;-66
2022/10/28 11:53:46;;;;;;;5.78;1.65;;;17.70;65.10;;;;;;5107290;28;20016;-66
2022/10/28 11:56:41;;;;;;;11.27;2.03;;;17.70;65.10;;;;;;5107517;28;20196;-66
2022/10/28 11:59:32;;;;;;;7.82;1.67;;;17.70;65.20;;;;;;5104574;28;20012;-66
2022/10/28 12:02:20;;;;;;;3.40;1.50;;;17.70;65.30;;;;;;5094904;28;20026;-65
2022/10/28 12:05:16;;;;;;;7.50;2.22;;;17.70;65.20;;;;;;5105490;28;20032;-66
2022/10/28 12:08:06;;;;;;;6.70;2.45;;;17.70;65.20;;;;;;5103310;28;20028;-66
2022/10/28 12:10:37;;;;;;;6.80;1.58;;;17.70;65.30;;;;;;5106343;28;20088;-66
2022/10/28 12:13:06;;;;;;;2.30;1.67;;;17.60;65.50;;;;;;5106010;28;20027;-64
2022/10/28 12:16:08;;;;;;;5.43;1.70;;;17.60;65.60;;;;;;5106089;28;20020;-68
2022/10/28 12:19:04;;;;;;;5.55;1.98;;;17.60;65.40;;;;;;5105378;28;20020;-68
2022/10/28 12:21:43;;;;;;;5.78;2.38;;;17.70;65.40;;;;;;5105882;28;20342;-69
2022/10/28 12:24:19;;;;;;;4.32;1.65;;;17.70;65.30;;;;;;5106138;28;20051;-68
2022/10/28 12:26:55;;;;;;;4.80;1.75;;;17.70;65.30;;;;;;5105765;28;20015;-67
2022/10/28 12:29:25;;;;;;;13.65;8.05;;;17.70;65.20;;;;;;5105842;28;20020;-66
2022/10/28 12:32:06;;;;;;;26.88;12.48;;;17.70;66.70;;;;;;5098219;28;20039;-67
2022/10/28 12:34:46;;;;;;;24.88;12.32;;;17.60;68.40;;;;;;5104835;28;20308;-66
2022/10/28 12:37:21;;;;;;;18.77;11.98;;;17.60;69.00;;;;;;5105635;28;20020;-68
2022/10/28 12:40:19;;;;;;;18.80;11.32;;;17.50;69.00;;;;;;5099918;28;20020;-67
2022/10/28 12:42:48;;;;;;;;;;;17.50;68.90;;;;;;5105160;28;20027;-69
2022/10/28 12:45:17;;;;;;;21.23;11.48;;;17.50;69.00;;;;;;5105338;28;19908;-69
2022/10/28 12:47:51;;;;;;;17.45;10.32;;;17.50;68.90;;;;;;5106205;28;20007;-69
2022/10/28 12:50:31;;;;;;;13.10;7.60;;;17.60;68.20;;;;;;5089151;28;20031;-69
2022/10/28 12:53:00;;;;;;;12.00;7.18;;;17.60;67.50;;;;;;5085548;28;20369;-69
2022/10/28 12:55:29;;;;;;;;;;;17.70;67.30;;;;;;5086369;28;20028;-69
2022/10/28 12:58:21;;;;;;;13.20;6.97;;;17.70;67.10;;;;;;5085273;28;19900;-69
2022/10/28 13:00:56;;;;;;;15.48;8.00;;;17.70;66.90;;;;;;5084973;28;20016;-69
2022/10/28 13:03:22;;;;;;;18.55;8.00;;;17.70;66.70;;;;;;5085284;28;20083;-69
2022/10/28 13:05:47;;;;;;;11.05;7.00;;;17.70;66.70;;;;;;5085372;28;20035;-69
2022/10/28 13:08:33;;;;;;;17.95;7.45;;;17.70;66.70;;;;;;5084435;28;20013;-69
2022/10/28 13:11:20;;;;;;;12.63;7.43;;;17.70;66.50;;;;;;5085526;28;20062;-69